createdAt,value
2017-12-15T00:02:07.268Z,3.33
2017-12-15T00:04:34.714Z,3.59
2017-12-15T00:07:02.174Z,3.63
2017-12-15T00:09:30.165Z,3.77
2017-12-15T00:11:58.409Z,3.79
2017-12-15T00:14:25.860Z,3.76
2017-12-15T00:16:53.865Z,3.81
2017-12-15T00:19:21.313Z,3.82
2017-12-15T00:21:48.754Z,3.83
2017-12-15T00:24:16.504Z,3.78
2017-12-15T00:26:43.960Z,3.63
2017-12-15T00:29:11.425Z,3.77
2017-12-15T00:31:39.562Z,3.78
2017-12-15T00:34:07.009Z,3.84
2017-12-15T00:36:34.459Z,3.78
2017-12-15T00:39:02.250Z,3.78
2017-12-15T00:41:29.698Z,3.96
2017-12-15T00:43:57.144Z,3.98
2017-12-15T00:46:25.998Z,4.04
2017-12-15T00:48:53.463Z,4.04
2017-12-15T00:51:20.920Z,4.11
2017-12-15T00:53:48.846Z,4.02
2017-12-15T00:56:16.321Z,3.99
2017-12-15T00:58:43.779Z,4.11
2017-12-15T01:01:11.539Z,4.04
2017-12-15T01:03:38.991Z,4.06
2017-12-15T01:06:06.435Z,4.08
2017-12-15T01:08:34.226Z,4.14
2017-12-15T01:11:01.669Z,3.28
2017-12-15T01:13:32.278Z,3.49
2017-12-15T01:16:00.297Z,3.29
2017-12-15T01:18:27.760Z,3.01
2017-12-15T01:20:55.217Z,3.22
2017-12-15T01:23:23.282Z,3.07
2017-12-15T01:25:52.360Z,3.18
2017-12-15T01:28:19.814Z,3.06
2017-12-15T01:30:47.636Z,2.86
2017-12-15T01:33:15.085Z,2.83
2017-12-15T01:35:42.542Z,2.93
2017-12-15T01:38:10.497Z,2.85
2017-12-15T01:40:37.952Z,2.89
2017-12-15T01:43:05.398Z,3.07
2017-12-15T01:45:33.184Z,2.82
2017-12-15T01:48:00.633Z,2.95
2017-12-15T01:50:28.080Z,2.95
2017-12-15T01:52:55.882Z,3.00
2017-12-15T01:55:23.353Z,2.77
2017-12-15T01:57:51.316Z,2.80
2017-12-15T02:00:19.169Z,2.81
2017-12-15T02:02:46.621Z,2.84
2017-12-15T02:05:14.073Z,2.84
2017-12-15T02:07:41.859Z,2.68
2017-12-15T02:10:09.316Z,2.64
2017-12-15T02:12:36.762Z,2.66
2017-12-15T02:15:05.468Z,2.69
2017-12-15T02:17:32.921Z,2.78
2017-12-15T02:20:00.376Z,2.78
2017-12-15T02:22:28.164Z,2.78
2017-12-15T02:24:55.621Z,2.72
2017-12-15T02:27:23.077Z,2.73
2017-12-15T02:29:52.085Z,2.67
2017-12-15T02:32:19.549Z,2.47
2017-12-15T02:34:47.007Z,2.33
2017-12-15T02:37:14.792Z,2.42
2017-12-15T02:39:42.236Z,2.25
2017-12-15T02:42:09.694Z,2.33
2017-12-15T02:44:37.368Z,2.31
2017-12-15T02:47:04.822Z,2.32
2017-12-15T02:49:32.279Z,2.33
2017-12-15T02:52:00.129Z,2.25
2017-12-15T02:54:27.585Z,2.19
2017-12-15T02:56:55.033Z,2.12
2017-12-15T02:59:22.827Z,2.19
2017-12-15T03:01:50.286Z,2.00
2017-12-15T03:04:17.813Z,2.08
2017-12-15T03:06:46.120Z,2.00
2017-12-15T03:09:13.574Z,1.99
2017-12-15T03:11:41.025Z,1.93
2017-12-15T03:14:10.342Z,1.89
2017-12-15T03:16:38.185Z,1.94
2017-12-15T03:19:05.665Z,1.93
2017-12-15T03:21:33.541Z,1.82
2017-12-15T03:24:01.005Z,1.61
2017-12-15T03:26:28.472Z,1.75
2017-12-15T03:28:56.324Z,1.80
2017-12-15T03:31:23.778Z,1.71
2017-12-15T03:33:52.225Z,1.79
2017-12-15T03:36:20.090Z,1.77
2017-12-15T03:38:47.547Z,1.74
2017-12-15T03:41:14.998Z,1.70
2017-12-15T03:43:42.931Z,1.68
2017-12-15T03:46:10.398Z,1.68
2017-12-15T03:48:37.862Z,1.75
2017-12-15T03:51:05.619Z,1.70
2017-12-15T03:53:33.079Z,1.72
2017-12-15T03:56:00.583Z,1.84
2017-12-15T03:58:28.310Z,1.78
2017-12-15T04:00:55.765Z,1.90
2017-12-15T04:03:23.225Z,1.80
2017-12-15T04:05:52.246Z,1.86
2017-12-15T04:08:19.660Z,2.21
2017-12-15T04:10:47.117Z,2.36
2017-12-15T04:13:14.875Z,2.09
2017-12-15T04:15:42.333Z,2.13
2017-12-15T04:18:10.224Z,2.09
2017-12-15T04:20:37.909Z,2.16
2017-12-15T04:23:05.373Z,2.12
2017-12-15T04:25:32.834Z,2.30
2017-12-15T04:28:00.589Z,2.39
2017-12-15T04:30:28.044Z,2.26
2017-12-15T04:32:55.500Z,2.23
2017-12-15T04:35:23.267Z,2.17
2017-12-15T04:37:50.746Z,2.31
2017-12-15T04:40:18.779Z,2.37
2017-12-15T04:42:46.667Z,2.38
2017-12-15T04:45:14.471Z,2.61
2017-12-15T04:47:41.956Z,2.49
2017-12-15T04:50:09.814Z,2.55
2017-12-15T04:52:37.262Z,2.56
2017-12-15T04:55:04.719Z,2.55
2017-12-15T04:57:32.568Z,2.51
2017-12-15T05:00:00.019Z,2.53
2017-12-15T05:02:27.477Z,2.57
2017-12-15T05:04:55.161Z,2.57
2017-12-15T05:07:22.627Z,2.68
2017-12-15T05:09:50.084Z,2.64
2017-12-15T05:12:17.842Z,2.70
2017-12-15T05:14:45.308Z,2.66
2017-12-15T05:17:12.820Z,2.58
2017-12-15T05:19:40.941Z,2.84
2017-12-15T05:22:08.417Z,2.70
2017-12-15T05:24:35.880Z,2.74
2017-12-15T05:27:03.605Z,2.77
2017-12-15T05:29:31.073Z,2.87
2017-12-15T05:31:58.534Z,2.90
2017-12-15T05:34:26.305Z,2.91
2017-12-15T05:36:53.761Z,2.91
2017-12-15T05:39:21.214Z,3.00
2017-12-15T05:41:48.988Z,3.00
2017-12-15T05:44:16.448Z,3.25
2017-12-15T05:46:43.901Z,2.84
2017-12-15T05:49:11.684Z,2.85
2017-12-15T05:51:39.145Z,3.02
2017-12-15T05:54:06.601Z,2.77
2017-12-15T05:56:34.238Z,2.80
2017-12-15T05:59:01.690Z,2.93
2017-12-15T06:01:29.145Z,2.97
2017-12-15T06:03:57.053Z,2.87
2017-12-15T06:06:24.505Z,2.90
2017-12-15T06:08:51.965Z,3.10
2017-12-15T06:11:19.734Z,2.82
2017-12-15T06:13:47.189Z,2.85
2017-12-15T06:16:14.642Z,2.56
2017-12-15T06:18:42.285Z,2.51
2017-12-15T06:21:10.586Z,2.43
2017-12-15T06:23:38.046Z,3.13
2017-12-15T06:26:06.037Z,2.51
2017-12-15T06:28:33.497Z,2.55
2017-12-15T06:31:00.961Z,2.62
2017-12-15T06:33:28.736Z,2.89
2017-12-15T06:35:56.193Z,2.72
2017-12-15T06:38:23.662Z,2.72
2017-12-15T06:40:51.421Z,2.69
2017-12-15T06:43:18.885Z,2.72
2017-12-15T06:45:46.349Z,2.72
2017-12-15T06:48:14.106Z,2.47
2017-12-15T06:50:41.560Z,2.58
2017-12-15T06:53:09.016Z,2.74
2017-12-15T06:55:36.790Z,2.82
2017-12-15T06:58:04.244Z,2.61
2017-12-15T07:00:31.702Z,2.58
2017-12-15T07:02:59.469Z,2.58
2017-12-15T07:05:26.918Z,2.58
2017-12-15T07:07:54.373Z,2.80
2017-12-15T07:10:22.163Z,2.93
2017-12-15T07:12:49.663Z,2.96
2017-12-15T07:15:17.130Z,2.97
2017-12-15T07:17:45.166Z,2.99
2017-12-15T07:20:12.626Z,3.08
2017-12-15T07:22:42.309Z,3.07
2017-12-15T07:25:10.107Z,2.88
2017-12-15T07:27:37.562Z,2.94
2017-12-15T07:30:05.014Z,2.96
2017-12-15T07:32:32.690Z,2.99
2017-12-15T07:35:00.144Z,2.74
2017-12-15T07:37:27.611Z,2.68
2017-12-15T07:39:55.674Z,2.95
2017-12-15T07:42:23.130Z,2.84
2017-12-15T07:44:50.580Z,2.90
2017-12-15T07:47:18.355Z,2.84
2017-12-15T07:49:45.812Z,2.74
2017-12-15T07:52:13.266Z,2.90
2017-12-15T07:54:41.058Z,3.06
2017-12-15T07:57:08.520Z,3.08
2017-12-15T07:59:35.985Z,3.05
2017-12-15T08:02:03.730Z,3.11
2017-12-15T08:04:31.177Z,3.07
2017-12-15T08:06:58.641Z,3.09
2017-12-15T08:09:26.417Z,3.13
2017-12-15T08:11:53.873Z,3.26
2017-12-15T08:14:21.329Z,3.39
2017-12-15T08:16:49.423Z,3.47
2017-12-15T08:19:16.892Z,3.55
2017-12-15T08:21:44.349Z,3.59
2017-12-15T08:24:12.404Z,3.68
2017-12-15T08:26:39.871Z,3.69
2017-12-15T08:29:07.332Z,3.66
2017-12-15T08:31:35.100Z,3.56
2017-12-15T08:34:02.557Z,3.64
2017-12-15T08:36:30.010Z,3.65
2017-12-15T08:38:57.792Z,3.72
2017-12-15T08:41:25.252Z,3.77
2017-12-15T08:43:52.720Z,3.89
2017-12-15T08:46:20.479Z,3.72
2017-12-15T08:48:47.958Z,3.53
2017-12-15T08:51:15.440Z,3.26
2017-12-15T08:53:43.168Z,3.56
2017-12-15T08:56:10.636Z,3.58
2017-12-15T08:58:38.094Z,3.69
2017-12-15T09:01:05.878Z,3.76
2017-12-15T09:03:33.333Z,3.77
2017-12-15T09:06:00.789Z,3.88
2017-12-15T09:08:28.839Z,3.72
2017-12-15T09:10:56.324Z,3.77
2017-12-15T09:13:23.788Z,3.84
2017-12-15T09:15:51.524Z,3.91
2017-12-15T09:18:18.975Z,3.86
2017-12-15T09:20:46.425Z,3.88
2017-12-15T09:23:14.158Z,3.96
2017-12-15T09:25:41.954Z,4.01
2017-12-15T09:28:09.405Z,3.97
2017-12-15T09:30:37.207Z,4.03
2017-12-15T09:33:04.681Z,3.95
2017-12-15T09:35:32.137Z,3.98
2017-12-15T09:37:59.900Z,3.93
2017-12-15T09:40:27.357Z,3.92
2017-12-15T09:42:54.818Z,3.96
2017-12-15T09:45:22.878Z,4.01
2017-12-15T09:47:50.332Z,4.07
2017-12-15T09:50:17.785Z,4.03
2017-12-15T09:52:45.581Z,4.13
2017-12-15T09:55:13.041Z,4.17
2017-12-15T09:57:40.517Z,4.12
2017-12-15T10:00:08.885Z,4.19
2017-12-15T10:02:36.345Z,4.05
2017-12-15T10:05:03.804Z,4.04
2017-12-15T10:07:31.561Z,4.13
2017-12-15T10:09:59.024Z,4.10
2017-12-15T10:12:26.484Z,4.05
2017-12-15T10:14:54.245Z,4.03
2017-12-15T10:17:21.702Z,4.21
2017-12-15T10:19:49.249Z,4.25
2017-12-15T10:22:16.884Z,4.19
2017-12-15T10:24:44.336Z,4.25
2017-12-15T10:27:12.849Z,4.28
2017-12-15T10:29:41.153Z,4.50
2017-12-15T10:32:08.606Z,4.52
2017-12-15T10:34:36.058Z,4.52
2017-12-15T10:37:03.755Z,4.57
2017-12-15T10:39:31.210Z,4.81
2017-12-15T10:41:58.652Z,4.84
2017-12-15T10:44:26.534Z,4.82
2017-12-15T10:46:53.986Z,4.86
2017-12-15T10:49:21.431Z,4.98
2017-12-15T10:51:49.223Z,5.15
2017-12-15T10:54:16.666Z,5.32
2017-12-15T10:56:44.114Z,5.33
2017-12-15T10:59:11.899Z,5.42
2017-12-15T11:01:39.360Z,5.59
2017-12-15T11:04:06.804Z,5.61
2017-12-15T11:06:34.586Z,5.89
2017-12-15T11:09:02.028Z,5.91
2017-12-15T11:11:29.468Z,6.04
2017-12-15T11:13:57.282Z,5.89
2017-12-15T11:16:24.730Z,6.01
2017-12-15T11:18:52.173Z,5.97
2017-12-15T11:21:19.864Z,5.97
2017-12-15T11:23:47.317Z,5.90
2017-12-15T11:26:14.758Z,5.99
2017-12-15T11:28:42.974Z,5.92
2017-12-15T11:31:10.431Z,6.02
2017-12-15T11:33:37.901Z,6.04
2017-12-15T11:36:05.696Z,6.17
2017-12-15T11:38:33.147Z,6.33
2017-12-15T11:41:00.595Z,6.28
2017-12-15T11:43:28.364Z,6.59
2017-12-15T11:45:55.816Z,6.55
2017-12-15T11:48:23.269Z,6.73
2017-12-15T11:50:51.013Z,6.67
2017-12-15T11:53:18.457Z,6.78
2017-12-15T11:55:45.893Z,7.04
2017-12-15T11:58:13.710Z,6.94
2017-12-15T12:00:41.157Z,6.73
2017-12-15T12:03:08.603Z,7.12
2017-12-15T12:05:36.390Z,8.16
2017-12-15T12:08:03.836Z,8.80
2017-12-15T12:10:31.273Z,9.19
2017-12-15T12:12:59.080Z,8.43
2017-12-15T12:15:26.520Z,8.26
2017-12-15T12:17:53.957Z,7.88
2017-12-15T12:20:21.765Z,7.77
2017-12-15T12:22:49.215Z,8.44
2017-12-15T12:25:16.660Z,7.91
2017-12-15T12:27:44.281Z,7.31
2017-12-15T12:30:12.598Z,7.01
2017-12-15T12:32:40.038Z,6.83
2017-12-15T12:35:07.758Z,6.82
2017-12-15T12:37:35.197Z,6.93
2017-12-15T12:40:02.632Z,6.45
2017-12-15T12:42:30.461Z,6.56
2017-12-15T12:44:57.903Z,6.54
2017-12-15T12:47:25.400Z,7.25
2017-12-15T12:49:53.129Z,7.89
2017-12-15T12:52:20.579Z,7.24
2017-12-15T12:54:48.025Z,6.83
2017-12-15T12:57:16.233Z,6.74
2017-12-15T12:59:43.693Z,6.52
2017-12-15T13:02:11.153Z,6.49
2017-12-15T13:04:38.912Z,6.42
2017-12-15T13:07:06.359Z,6.39
2017-12-15T13:09:33.805Z,6.56
2017-12-15T13:12:01.496Z,6.36
2017-12-15T13:14:28.933Z,6.42
2017-12-15T13:16:56.406Z,6.45
2017-12-15T13:19:24.181Z,6.27
2017-12-15T13:21:51.643Z,6.30
2017-12-15T13:24:19.085Z,6.23
2017-12-15T13:26:47.011Z,6.10
2017-12-15T13:29:14.467Z,6.08
2017-12-15T13:31:42.478Z,6.08
2017-12-15T13:34:10.497Z,6.00
2017-12-15T13:36:37.937Z,6.09
2017-12-15T13:39:05.382Z,5.99
2017-12-15T13:41:33.131Z,6.01
2017-12-15T13:44:00.580Z,5.98
2017-12-15T13:46:28.017Z,5.97
2017-12-15T13:48:55.846Z,5.89
2017-12-15T13:51:23.292Z,5.89
2017-12-15T13:53:50.739Z,5.94
2017-12-15T13:56:18.534Z,5.93
2017-12-15T13:58:45.983Z,5.87
2017-12-15T14:01:13.428Z,5.86
2017-12-15T14:03:41.290Z,5.90
2017-12-15T14:06:08.737Z,5.75
2017-12-15T14:08:36.178Z,5.90
2017-12-15T14:11:03.931Z,5.77
2017-12-15T14:13:31.368Z,5.79
2017-12-15T14:15:58.813Z,5.86
2017-12-15T14:18:26.601Z,5.81
2017-12-15T14:20:54.041Z,5.75
2017-12-15T14:23:21.482Z,5.68
2017-12-15T14:25:49.283Z,5.52
2017-12-15T14:28:16.725Z,5.51
2017-12-15T14:30:44.169Z,5.48
2017-12-15T14:33:13.562Z,5.46
2017-12-15T14:35:41.005Z,5.59
2017-12-15T14:38:08.455Z,5.51
2017-12-15T14:40:36.201Z,5.43
2017-12-15T14:43:03.643Z,5.42
2017-12-15T14:45:31.095Z,5.36
2017-12-15T14:47:58.761Z,5.28
2017-12-15T14:50:26.216Z,5.31
2017-12-15T14:52:53.658Z,5.28
2017-12-15T14:55:21.571Z,5.23
2017-12-15T14:57:49.014Z,5.17
2017-12-15T15:00:16.456Z,5.18
2017-12-15T15:02:44.273Z,5.45
2017-12-15T15:05:11.713Z,5.64
2017-12-15T15:07:39.172Z,5.20
2017-12-15T15:10:06.951Z,5.18
2017-12-15T15:12:34.394Z,5.13
2017-12-15T15:15:01.841Z,4.90
2017-12-15T15:17:29.633Z,4.95
2017-12-15T15:19:57.085Z,5.01
2017-12-15T15:22:24.530Z,4.88
2017-12-15T15:24:52.326Z,4.76
2017-12-15T15:27:19.782Z,4.71
2017-12-15T15:29:47.230Z,4.76
2017-12-15T15:32:15.025Z,4.75
2017-12-15T15:34:43.800Z,4.71
2017-12-15T15:37:11.265Z,4.76
2017-12-15T15:39:39.222Z,4.70
2017-12-15T15:42:06.740Z,4.64
2017-12-15T15:44:34.184Z,4.64
2017-12-15T15:47:01.909Z,4.67
2017-12-15T15:49:29.358Z,4.58
2017-12-15T15:51:56.815Z,4.53
2017-12-15T15:54:24.597Z,4.51
2017-12-15T15:56:52.041Z,4.51
2017-12-15T15:59:19.484Z,4.42
2017-12-15T16:01:47.193Z,4.35
2017-12-15T16:04:14.642Z,4.28
2017-12-15T16:06:42.094Z,4.21
2017-12-15T16:09:09.973Z,4.15
2017-12-15T16:11:37.425Z,4.24
2017-12-15T16:14:04.876Z,4.19
2017-12-15T16:16:32.686Z,4.05
2017-12-15T16:19:00.133Z,4.02
2017-12-15T16:21:27.587Z,4.09
2017-12-15T16:23:55.658Z,4.12
2017-12-15T16:26:23.140Z,4.04
2017-12-15T16:28:50.606Z,4.01
2017-12-15T16:31:18.653Z,3.90
2017-12-15T16:33:46.109Z,3.84
2017-12-15T16:36:13.959Z,3.70
2017-12-15T16:38:41.654Z,3.65
2017-12-15T16:41:09.104Z,3.60
2017-12-15T16:43:36.549Z,3.48
2017-12-15T16:46:04.349Z,3.42
2017-12-15T16:48:31.792Z,3.31
2017-12-15T16:50:59.259Z,3.28
2017-12-15T16:53:27.022Z,3.39
2017-12-15T16:55:54.477Z,3.44
2017-12-15T16:58:21.934Z,3.34
2017-12-15T17:00:49.714Z,3.22
2017-12-15T17:03:17.179Z,3.15
2017-12-15T17:05:44.632Z,3.31
2017-12-15T17:08:12.396Z,3.29
2017-12-15T17:10:39.849Z,3.23
2017-12-15T17:13:07.298Z,3.16
2017-12-15T17:15:35.695Z,3.08
2017-12-15T17:18:03.150Z,3.05
2017-12-15T17:20:30.625Z,3.07
2017-12-15T17:22:58.385Z,3.15
2017-12-15T17:25:25.855Z,3.16
2017-12-15T17:27:53.319Z,2.96
2017-12-15T17:30:21.390Z,2.91
2017-12-15T17:32:48.857Z,2.87
2017-12-15T17:35:16.319Z,2.87
2017-12-15T17:37:44.634Z,2.66
2017-12-15T17:40:12.093Z,2.77
2017-12-15T17:42:39.545Z,2.76
2017-12-15T17:45:07.622Z,2.73
2017-12-15T17:47:35.142Z,2.66
2017-12-15T17:50:02.618Z,2.89
2017-12-15T17:52:30.375Z,2.85
2017-12-15T17:54:57.836Z,2.81
2017-12-15T17:57:25.291Z,2.70
2017-12-15T17:59:53.062Z,2.66
2017-12-15T18:02:24.565Z,2.76
2017-12-15T18:04:52.134Z,2.74
2017-12-15T18:07:20.048Z,2.62
2017-12-15T18:09:47.507Z,2.49
2017-12-15T18:12:14.953Z,2.65
2017-12-15T18:14:42.729Z,2.66
2017-12-15T18:17:10.181Z,2.90
2017-12-15T18:19:37.643Z,2.42
2017-12-15T18:22:05.710Z,2.68
2017-12-15T18:24:33.168Z,2.37
2017-12-15T18:27:00.629Z,2.50
2017-12-15T18:29:28.408Z,2.53
2017-12-15T18:31:55.862Z,2.75
2017-12-15T18:34:23.323Z,2.77
2017-12-15T18:36:51.128Z,2.67
2017-12-15T18:39:18.929Z,2.38
2017-12-15T18:41:46.409Z,2.54
2017-12-15T18:44:14.246Z,2.52
2017-12-15T18:46:41.732Z,2.36
2017-12-15T18:49:09.205Z,2.42
2017-12-15T18:51:37.094Z,2.49
2017-12-15T18:54:04.553Z,2.78
2017-12-15T18:56:32.027Z,2.74
2017-12-15T18:59:00.051Z,2.86
2017-12-15T19:01:27.525Z,2.87
2017-12-15T19:03:54.972Z,2.87
2017-12-15T19:06:22.748Z,2.73
2017-12-15T19:08:50.212Z,2.72
2017-12-15T19:11:17.665Z,2.36
2017-12-15T19:13:45.462Z,2.42
2017-12-15T19:16:12.938Z,2.56
2017-12-15T19:18:40.389Z,2.58
2017-12-15T19:21:08.146Z,2.36
2017-12-15T19:23:35.609Z,2.50
2017-12-15T19:26:03.095Z,2.34
2017-12-15T19:28:30.838Z,2.41
2017-12-15T19:30:58.603Z,2.13
2017-12-15T19:33:26.064Z,2.22
2017-12-15T19:35:54.117Z,2.21
2017-12-15T19:38:21.577Z,2.37
2017-12-15T19:40:51.890Z,2.24
2017-12-15T19:43:19.908Z,2.41
2017-12-15T19:45:47.379Z,2.30
2017-12-15T19:48:14.874Z,2.47
2017-12-15T19:50:42.890Z,2.56
2017-12-15T19:53:10.341Z,2.44
2017-12-15T19:55:37.810Z,2.41
2017-12-15T19:58:05.547Z,2.38
2017-12-15T20:00:33.011Z,2.40
2017-12-15T20:03:00.546Z,2.42
2017-12-15T20:05:28.268Z,2.32
2017-12-15T20:07:56.258Z,2.46
2017-12-15T20:10:23.871Z,2.41
2017-12-15T20:12:51.868Z,2.34
2017-12-15T20:15:19.880Z,2.39
2017-12-15T20:17:47.348Z,2.38
2017-12-15T20:20:15.166Z,2.30
2017-12-15T20:22:42.625Z,2.34
2017-12-15T20:25:10.085Z,2.44
2017-12-15T20:27:37.857Z,2.31
2017-12-15T20:30:05.314Z,2.40
2017-12-15T20:32:32.777Z,2.42
2017-12-15T20:35:00.857Z,2.37
2017-12-15T20:37:28.318Z,2.42
2017-12-15T20:39:55.787Z,2.46
2017-12-15T20:42:24.094Z,2.52
2017-12-15T20:44:51.706Z,2.51
2017-12-15T20:47:19.177Z,2.68
2017-12-15T20:49:47.140Z,2.81
2017-12-15T20:52:14.606Z,2.84
2017-12-15T20:54:42.063Z,2.86
2017-12-15T20:57:09.816Z,2.93
2017-12-15T20:59:37.272Z,2.82
2017-12-15T21:02:04.732Z,2.62
2017-12-15T21:04:32.641Z,2.71
2017-12-15T21:07:00.099Z,2.63
2017-12-15T21:09:27.579Z,2.61
2017-12-15T21:11:55.501Z,2.40
2017-12-15T21:14:22.960Z,2.42
2017-12-15T21:16:50.412Z,2.40
2017-12-15T21:19:18.209Z,2.40
2017-12-15T21:21:45.680Z,2.53
2017-12-15T21:24:13.135Z,2.51
2017-12-15T21:26:40.882Z,2.43
2017-12-15T21:29:08.349Z,2.44
2017-12-15T21:31:35.849Z,2.44
2017-12-15T21:34:03.924Z,2.42
2017-12-15T21:36:31.446Z,2.31
2017-12-15T21:38:58.909Z,2.38
2017-12-15T21:41:26.558Z,2.36
2017-12-15T21:43:54.957Z,2.31
2017-12-15T21:46:22.423Z,2.34
2017-12-15T21:48:50.163Z,2.32
2017-12-15T21:51:17.622Z,2.26
2017-12-15T21:53:45.086Z,2.26
2017-12-15T21:56:12.862Z,2.28
2017-12-15T21:58:40.320Z,2.13
2017-12-15T22:01:07.778Z,2.08
2017-12-15T22:03:35.552Z,2.08
2017-12-15T22:06:03.009Z,2.15
2017-12-15T22:08:30.479Z,2.16
2017-12-15T22:10:58.226Z,2.09
2017-12-15T22:13:25.682Z,2.08
2017-12-15T22:15:53.138Z,2.14
2017-12-15T22:18:20.917Z,2.08
2017-12-15T22:20:48.374Z,2.21
2017-12-15T22:23:15.841Z,2.27
2017-12-15T22:25:44.226Z,2.16
2017-12-15T22:28:11.738Z,2.08
2017-12-15T22:30:39.198Z,1.92
2017-12-15T22:33:07.141Z,1.87
2017-12-15T22:35:34.593Z,1.87
2017-12-15T22:38:02.045Z,1.87
2017-12-15T22:40:29.901Z,2.01
2017-12-15T22:42:57.356Z,1.97
2017-12-15T22:45:25.208Z,1.92
2017-12-15T22:47:53.196Z,1.84
2017-12-15T22:50:20.647Z,1.91
2017-12-15T22:52:48.109Z,1.80
2017-12-15T22:55:16.519Z,1.79
2017-12-15T22:57:43.969Z,1.91
2017-12-15T23:00:11.419Z,1.89
2017-12-15T23:02:39.205Z,1.92
2017-12-15T23:05:06.654Z,1.93
2017-12-15T23:07:34.119Z,1.98
2017-12-15T23:10:01.873Z,1.98
2017-12-15T23:12:30.950Z,1.93
2017-12-15T23:14:58.406Z,1.92
2017-12-15T23:17:26.041Z,1.90
2017-12-15T23:19:53.509Z,1.94
2017-12-15T23:22:20.968Z,1.97
2017-12-15T23:24:48.782Z,1.90
2017-12-15T23:27:16.229Z,1.94
2017-12-15T23:29:43.688Z,1.97
2017-12-15T23:32:11.397Z,2.04
2017-12-15T23:34:38.860Z,2.08
2017-12-15T23:37:06.325Z,2.01
2017-12-15T23:39:34.158Z,1.88
2017-12-15T23:42:01.614Z,1.87
2017-12-15T23:44:29.062Z,1.90
2017-12-15T23:46:57.496Z,1.79
2017-12-15T23:49:24.952Z,1.83
2017-12-15T23:51:52.410Z,1.93
2017-12-15T23:54:31.825Z,2.14
2017-12-15T23:57:01.205Z,2.00
2017-12-15T23:59:28.663Z,1.97
